createdAt,value
2018-07-10T00:02:25.843Z,95514.92
2018-07-10T00:04:54.895Z,95510.83
2018-07-10T00:09:59.734Z,95505.13
2018-07-10T00:12:29.738Z,95498.63
2018-07-10T00:14:58.773Z,95502.85
2018-07-10T00:17:27.870Z,95503.85
2018-07-10T00:19:56.965Z,95506.75
2018-07-10T00:25:01.842Z,95504.92
2018-07-10T00:30:06.663Z,95491.20
2018-07-10T00:32:35.740Z,95489.22
2018-07-10T00:35:05.750Z,95482.41
2018-07-10T00:40:10.525Z,95488.77
2018-07-10T00:42:39.601Z,95490.09
2018-07-10T00:47:44.378Z,95489.59
2018-07-10T00:50:13.447Z,95486.73
2018-07-10T00:57:53.986Z,95486.79
2018-07-10T01:00:23.968Z,95480.90
2018-07-10T01:05:28.741Z,95476.72
2018-07-10T01:07:58.746Z,95477.33
2018-07-10T01:10:27.853Z,95477.20
2018-07-10T01:12:57.933Z,95469.39
2018-07-10T01:15:27.002Z,95474.46
2018-07-10T01:20:31.872Z,95466.38
2018-07-10T01:23:01.940Z,95462.59
2018-07-10T01:25:33.058Z,95466.80
2018-07-10T01:28:02.115Z,95464.79
2018-07-10T01:30:31.183Z,95466.70
2018-07-10T01:33:00.231Z,95474.23
2018-07-10T01:35:29.281Z,95474.72
2018-07-10T01:40:34.063Z,95467.14
2018-07-10T01:45:38.902Z,95470.69
2018-07-10T01:50:43.741Z,95472.03
2018-07-10T01:53:12.811Z,95467.81
2018-07-10T01:55:41.878Z,95463.44
2018-07-10T02:00:46.710Z,95455.55
2018-07-10T02:03:17.717Z,95454.49
2018-07-10T02:08:22.490Z,95457.03
2018-07-10T02:14:09.076Z,95448.30
2018-07-10T02:16:41.253Z,95447.19
2018-07-10T02:19:10.322Z,95447.81
2018-07-10T02:21:39.369Z,95446.00
2018-07-10T02:24:10.389Z,95440.95
2018-07-10T02:29:15.155Z,95432.31
2018-07-10T02:31:44.258Z,95432.55
2018-07-10T02:34:13.367Z,95433.63
2018-07-10T02:36:42.490Z,95432.20
2018-07-10T02:41:47.316Z,95433.16
2018-07-10T02:44:16.354Z,95430.84
2018-07-10T02:46:45.423Z,95430.19
2018-07-10T02:49:14.485Z,95434.39
2018-07-10T02:54:19.254Z,95429.60
2018-07-10T02:56:48.357Z,95424.84
2018-07-10T02:59:17.429Z,95426.55
2018-07-10T03:04:22.207Z,95421.69
2018-07-10T03:06:51.270Z,95417.14
2018-07-10T03:09:24.275Z,95411.96
2018-07-10T03:14:29.038Z,95400.27
2018-07-10T03:16:58.239Z,95407.73
2018-07-10T03:19:27.365Z,95408.34
2018-07-10T03:21:56.434Z,95406.30
2018-07-10T03:24:25.559Z,95407.94
2018-07-10T03:26:54.581Z,95415.33
2018-07-10T03:29:23.766Z,95416.04
2018-07-10T03:31:52.830Z,95420.72
2018-07-10T03:34:21.890Z,95429.66
2018-07-10T03:36:50.953Z,95426.48
2018-07-10T03:39:19.989Z,95420.30
2018-07-10T03:41:49.048Z,95414.25
2018-07-10T03:44:19.393Z,95407.20
2018-07-10T03:46:48.568Z,95405.91
2018-07-10T03:51:53.325Z,95417.89
2018-07-10T03:59:33.934Z,95426.92
2018-07-10T04:07:14.530Z,95421.07
2018-07-10T04:14:55.180Z,95408.31
2018-07-10T04:17:24.247Z,95412.17
2018-07-10T04:25:05.113Z,95422.69
2018-07-10T04:30:09.884Z,95426.57
2018-07-10T04:32:39.153Z,95429.13
2018-07-10T04:35:13.193Z,95429.48
2018-07-10T04:37:43.198Z,95416.12
2018-07-10T04:40:14.550Z,95412.48
2018-07-10T04:42:43.644Z,95412.16
2018-07-10T04:47:48.420Z,95406.13
2018-07-10T04:50:18.423Z,95403.36
2018-07-10T04:55:24.251Z,95406.17
2018-07-10T04:57:53.241Z,95403.90
2018-07-10T05:00:22.615Z,95404.80
2018-07-10T05:02:52.618Z,95405.25
2018-07-10T05:07:57.427Z,95405.25
2018-07-10T05:10:27.394Z,95402.30
2018-07-10T05:12:57.401Z,95404.28
2018-07-10T05:18:02.174Z,95402.80
2018-07-10T05:20:32.187Z,95406.12
2018-07-10T05:23:02.409Z,95405.11
2018-07-10T05:25:31.702Z,95405.19
2018-07-10T05:28:00.797Z,95406.31
2018-07-10T05:35:42.038Z,95397.01
2018-07-10T05:38:11.085Z,95397.91
2018-07-10T05:40:40.142Z,95399.44
2018-07-10T05:43:09.212Z,95393.27
2018-07-10T05:48:13.989Z,95393.80
2018-07-10T05:50:43.157Z,95394.55
2018-07-10T05:53:12.400Z,95399.64
2018-07-10T05:55:51.812Z,95401.57
2018-07-10T05:58:30.664Z,95399.55
2018-07-10T06:03:49.878Z,95412.97
2018-07-10T06:06:18.934Z,95422.41
2018-07-10T06:08:48.505Z,95422.75
2018-07-10T06:11:17.548Z,95421.86
2018-07-10T06:16:22.474Z,95421.94
2018-07-10T06:18:51.465Z,95419.64
2018-07-10T06:26:32.246Z,95402.99
2018-07-10T06:29:01.302Z,95405.44
2018-07-10T06:31:30.451Z,95404.05
2018-07-10T06:34:00.884Z,95405.59
2018-07-10T06:36:31.102Z,95399.72
2018-07-10T06:39:09.297Z,95401.88
2018-07-10T06:41:38.362Z,95403.02
2018-07-10T06:44:10.530Z,95406.80
2018-07-10T06:49:15.396Z,95409.73
2018-07-10T06:51:44.842Z,95407.13
2018-07-10T06:54:13.904Z,95409.70
2018-07-10T06:59:20.902Z,95413.14
2018-07-10T07:04:25.763Z,95409.21
2018-07-10T07:06:57.646Z,95410.78
2018-07-10T07:09:41.829Z,95408.48
2018-07-10T07:12:12.061Z,95408.95
2018-07-10T07:14:42.061Z,95410.81
2018-07-10T07:17:14.953Z,95411.64
2018-07-10T07:19:44.973Z,95413.98
2018-07-10T07:22:14.716Z,95410.94
2018-07-10T07:24:43.806Z,95404.28
2018-07-10T07:27:14.825Z,95396.77
2018-07-10T07:32:19.605Z,95400.44
2018-07-10T07:37:24.354Z,95410.59
2018-07-10T07:42:30.522Z,95416.52
2018-07-10T07:44:59.610Z,95414.10
2018-07-10T07:47:28.645Z,95410.20
2018-07-10T07:50:02.725Z,95410.73
2018-07-10T07:52:32.822Z,95414.50
2018-07-10T07:55:03.783Z,95411.73
2018-07-10T07:57:36.568Z,95408.23
2018-07-10T08:02:41.337Z,95410.44
2018-07-10T08:07:46.207Z,95410.08
2018-07-10T08:10:15.863Z,95404.34
2018-07-10T08:12:44.916Z,95406.20
2018-07-10T08:15:13.973Z,95408.23
2018-07-10T08:17:47.894Z,95404.53
2018-07-10T08:20:16.940Z,95398.34
2018-07-10T08:22:51.222Z,95398.98
2018-07-10T08:27:56.167Z,95402.15
2018-07-10T08:30:25.337Z,95404.87
2018-07-10T08:35:30.365Z,95405.63
2018-07-10T08:38:00.534Z,95401.84
2018-07-10T08:43:05.741Z,95400.30
2018-07-10T08:48:10.479Z,95389.32
2018-07-10T08:50:39.561Z,95388.95
2018-07-10T08:55:44.328Z,95390.73
2018-07-10T08:58:13.408Z,95385.91
2018-07-10T09:03:19.277Z,95391.32
2018-07-10T09:05:48.354Z,95394.49
2018-07-10T09:10:58.856Z,95398.37
2018-07-10T09:13:27.968Z,95399.66
2018-07-10T09:18:33.846Z,95399.72
2018-07-10T09:21:04.870Z,95398.50
2018-07-10T09:23:33.937Z,95392.09
2018-07-10T09:26:03.218Z,95387.98
2018-07-10T09:28:32.282Z,95384.92
2018-07-10T09:31:04.543Z,95378.13
2018-07-10T09:33:33.644Z,95377.23
2018-07-10T09:36:07.151Z,95377.34
2018-07-10T09:38:45.324Z,95378.22
2018-07-10T09:43:50.434Z,95380.11
2018-07-10T09:46:20.602Z,95384.97
2018-07-10T09:48:49.680Z,95393.08
2018-07-10T09:51:26.513Z,95389.20
2018-07-10T09:53:55.601Z,95387.43
2018-07-10T09:56:26.674Z,95386.20
2018-07-10T09:58:58.843Z,95390.24
2018-07-10T10:04:03.700Z,95385.36
2018-07-10T10:06:32.755Z,95380.34
2018-07-10T10:09:02.174Z,95385.06
2018-07-10T10:11:31.235Z,95381.38
2018-07-10T10:14:06.462Z,95382.84
2018-07-10T10:16:38.753Z,95378.28
2018-07-10T10:19:09.482Z,95377.52
2018-07-10T10:21:38.529Z,95372.31
2018-07-10T10:24:08.545Z,95380.30
2018-07-10T10:29:15.446Z,95376.33
2018-07-10T10:34:20.330Z,95368.14
2018-07-10T10:36:52.776Z,95364.25
2018-07-10T10:41:57.678Z,95357.05
2018-07-10T10:44:27.788Z,95351.90
2018-07-10T10:46:56.838Z,95350.73
2018-07-10T10:54:45.345Z,95340.27
2018-07-10T10:57:15.305Z,95343.28
2018-07-10T11:02:21.165Z,95333.28
2018-07-10T11:04:50.746Z,95339.47
2018-07-10T11:07:19.804Z,95333.77
2018-07-10T11:09:48.855Z,95324.43
2018-07-10T11:12:18.857Z,95316.82
2018-07-10T11:14:47.966Z,95322.79
2018-07-10T11:17:17.900Z,95316.19
2018-07-10T11:19:48.924Z,95311.64
2018-07-10T11:22:19.953Z,95314.94
2018-07-10T11:24:50.084Z,95311.11
2018-07-10T11:27:26.975Z,95308.67
2018-07-10T11:29:56.463Z,95317.84
2018-07-10T11:32:33.732Z,95319.57
2018-07-10T11:35:15.938Z,95316.06
2018-07-10T11:37:51.273Z,95312.03
2018-07-10T11:40:25.267Z,95312.67
2018-07-10T11:43:01.028Z,95315.47
2018-07-10T11:48:10.120Z,95310.42
2018-07-10T11:53:20.789Z,95309.12
2018-07-10T11:55:56.112Z,95312.33
2018-07-10T12:03:37.973Z,95303.16
2018-07-10T12:06:07.989Z,95297.73
2018-07-10T12:11:13.371Z,95297.15
2018-07-10T12:13:43.364Z,95296.50
2018-07-10T12:16:18.004Z,95296.10
2018-07-10T12:18:47.078Z,95295.23
2018-07-10T12:21:16.548Z,95292.45
2018-07-10T12:23:46.528Z,95282.45
2018-07-10T12:26:15.586Z,95284.45
2018-07-10T12:28:44.801Z,95274.11
2018-07-10T12:31:14.032Z,95270.55
2018-07-10T12:36:20.855Z,95265.34
2018-07-10T12:38:53.673Z,95268.13
2018-07-10T12:41:22.835Z,95270.93
2018-07-10T12:43:53.850Z,95271.39
2018-07-10T12:46:24.895Z,95268.15
2018-07-10T12:51:29.772Z,95273.72
2018-07-10T12:53:59.777Z,95267.66
2018-07-10T12:56:29.235Z,95259.85
2018-07-10T12:58:58.290Z,95252.79
2018-07-10T13:01:28.293Z,95257.84
2018-07-10T13:06:33.163Z,95252.63
2018-07-10T13:09:02.227Z,95255.66
2018-07-10T13:11:31.632Z,95255.59
2018-07-10T13:14:06.125Z,95249.62
2018-07-10T13:16:36.417Z,95245.52
2018-07-10T13:19:06.640Z,95246.45
2018-07-10T13:24:12.041Z,95245.23
2018-07-10T13:26:43.341Z,95239.75
2018-07-10T13:29:12.507Z,95231.34
2018-07-10T13:31:41.552Z,95237.87
2018-07-10T13:34:11.415Z,95232.38
2018-07-10T13:36:42.698Z,95221.58
2018-07-10T13:39:16.341Z,95216.99
2018-07-10T13:41:46.290Z,95227.44
2018-07-10T13:44:15.326Z,95224.45
2018-07-10T13:46:46.377Z,95222.09
2018-07-10T13:49:15.853Z,95223.87
2018-07-10T13:51:44.877Z,95226.52
2018-07-10T13:54:18.094Z,95208.38
2018-07-10T13:56:48.106Z,95199.46
2018-07-10T13:59:17.142Z,95200.27
2018-07-10T14:01:48.137Z,95207.61
2018-07-10T14:04:19.215Z,95210.77
2018-07-10T14:06:50.757Z,95207.97
2018-07-10T14:09:19.806Z,95205.61
2018-07-10T14:11:48.849Z,95191.56
2018-07-10T14:14:21.639Z,95192.84
2018-07-10T14:16:50.724Z,95193.88
2018-07-10T14:19:20.106Z,95193.27
2018-07-10T14:21:49.165Z,95194.48
2018-07-10T14:24:26.280Z,95195.88
2018-07-10T14:29:37.128Z,95214.19
2018-07-10T14:34:42.071Z,95301.95
2018-07-10T14:37:11.087Z,95341.41
2018-07-10T14:39:42.097Z,95328.59
2018-07-10T14:42:12.126Z,95331.22
2018-07-10T14:47:17.027Z,95310.53
2018-07-10T14:49:49.650Z,95310.44
2018-07-10T14:54:54.666Z,95294.96
2018-07-10T14:57:23.845Z,95295.34
2018-07-10T14:59:54.377Z,95307.28
2018-07-10T15:02:23.438Z,95309.21
2018-07-10T15:07:28.303Z,95325.95
2018-07-10T15:10:00.639Z,95329.13
2018-07-10T15:15:05.481Z,95327.15
2018-07-10T15:17:34.541Z,95340.23
2018-07-10T15:20:03.861Z,95342.28
2018-07-10T15:22:32.954Z,95345.29
2018-07-10T15:27:41.767Z,95338.30
2018-07-10T15:32:46.634Z,95316.90
2018-07-10T15:35:15.964Z,95317.15
2018-07-10T15:40:21.246Z,95307.56
2018-07-10T15:42:51.635Z,95320.00
2018-07-10T15:45:22.691Z,95330.12
2018-07-10T15:47:51.788Z,95325.26
2018-07-10T15:50:22.789Z,95318.23
2018-07-10T15:52:52.052Z,95324.61
2018-07-10T15:55:21.581Z,95324.24
2018-07-10T16:00:26.847Z,95323.31
2018-07-10T16:05:33.821Z,95335.80
2018-07-10T16:08:03.315Z,95338.69
2018-07-10T16:10:32.384Z,95334.03
2018-07-10T16:13:03.419Z,95339.34
2018-07-10T16:15:37.216Z,95344.47
2018-07-10T16:18:07.247Z,95343.05
2018-07-10T16:23:12.121Z,95347.12
2018-07-10T16:25:41.236Z,95350.73
2018-07-10T16:30:46.081Z,95352.00
2018-07-10T16:33:15.278Z,95357.59
2018-07-10T16:35:44.337Z,95360.80
2018-07-10T16:38:20.917Z,95364.52
2018-07-10T16:40:55.869Z,95363.36
2018-07-10T16:43:35.184Z,95366.81
2018-07-10T16:48:47.607Z,95366.60
2018-07-10T16:56:38.457Z,95367.64
2018-07-10T16:59:16.960Z,95369.97
2018-07-10T17:04:26.807Z,95370.19
2018-07-10T17:07:02.120Z,95375.46
2018-07-10T17:09:42.711Z,95375.61
2018-07-10T17:12:16.291Z,95379.58
2018-07-10T17:14:49.210Z,95381.23
2018-07-10T17:17:30.151Z,95382.22
2018-07-10T17:22:41.489Z,95387.91
2018-07-10T17:30:29.829Z,95377.57
2018-07-10T17:33:04.007Z,95374.44
2018-07-10T17:38:18.224Z,95385.80
2018-07-10T17:40:53.680Z,95401.69
2018-07-10T17:45:58.683Z,95400.08
2018-07-10T17:48:32.812Z,95399.36
2018-07-10T17:51:07.104Z,95390.26
2018-07-10T17:53:52.402Z,95388.84
2018-07-10T17:56:25.306Z,95392.63
2018-07-10T18:01:36.567Z,95390.59
2018-07-10T18:06:41.662Z,95386.00
2018-07-10T18:09:16.356Z,95391.07
2018-07-10T18:14:26.472Z,95390.35
2018-07-10T18:16:58.244Z,95389.07
2018-07-10T18:19:32.351Z,95391.59
2018-07-10T18:22:01.536Z,95392.31
2018-07-10T18:27:11.828Z,95395.16
2018-07-10T18:29:46.826Z,95396.63
2018-07-10T18:32:20.932Z,95392.83
2018-07-10T18:37:33.576Z,95392.92
2018-07-10T18:40:04.859Z,95397.55
2018-07-10T18:42:34.608Z,95399.31
2018-07-10T18:45:08.943Z,95406.88
2018-07-10T18:50:19.085Z,95401.25
2018-07-10T18:52:58.181Z,95407.53
2018-07-10T18:55:33.312Z,95414.53
2018-07-10T18:58:02.362Z,95417.51
2018-07-10T19:03:14.359Z,95427.05
2018-07-10T19:08:28.713Z,95425.98
2018-07-10T19:13:47.736Z,95424.57
2018-07-10T19:26:48.119Z,95433.72
2018-07-10T19:29:24.083Z,95428.67
2018-07-10T19:34:37.857Z,95436.41
2018-07-10T19:37:06.978Z,95441.61
2018-07-10T19:42:11.834Z,95439.48
2018-07-10T19:44:40.899Z,95448.01
2018-07-10T19:47:09.970Z,95445.70
2018-07-10T19:49:39.978Z,95438.17
2018-07-10T19:52:09.055Z,95434.52
2018-07-10T19:57:13.826Z,95457.70
2018-07-10T19:59:47.219Z,95454.56
2018-07-10T20:02:17.438Z,95456.26
2018-07-10T20:04:46.516Z,95459.83
2018-07-10T20:07:17.508Z,95455.27
2018-07-10T20:17:33.950Z,95447.67
2018-07-10T20:20:04.895Z,95449.77
2018-07-10T20:22:34.031Z,95454.02
2018-07-10T20:25:04.043Z,95449.27
2018-07-10T20:27:34.123Z,95445.42
2018-07-10T20:30:03.191Z,95441.17
2018-07-10T20:32:32.269Z,95436.83
2018-07-10T20:35:01.339Z,95438.19
2018-07-10T20:37:30.562Z,95441.20
2018-07-10T20:39:59.645Z,95438.47
2018-07-10T20:42:28.732Z,95438.05
2018-07-10T20:44:57.801Z,95440.47
2018-07-10T20:47:27.245Z,95439.02
2018-07-10T20:49:57.253Z,95431.20
2018-07-10T20:52:26.350Z,95426.84
2018-07-10T20:54:56.317Z,95431.58
2018-07-10T20:57:25.392Z,95435.24
2018-07-10T21:05:05.909Z,95430.91
2018-07-10T21:07:35.111Z,95437.39
2018-07-10T21:10:04.169Z,95443.23
2018-07-10T21:12:34.315Z,95437.52
2018-07-10T21:15:03.393Z,95429.95
2018-07-10T21:17:34.526Z,95425.67
2018-07-10T21:22:39.326Z,95415.44
2018-07-10T21:25:08.476Z,95413.03
2018-07-10T21:27:51.103Z,95415.36
2018-07-10T21:30:20.822Z,95422.77
2018-07-10T21:40:37.096Z,95424.94
2018-07-10T21:43:06.168Z,95414.38
2018-07-10T21:45:35.225Z,95415.23
2018-07-10T21:48:04.286Z,95425.10
2018-07-10T21:55:48.253Z,95418.78
2018-07-10T21:58:17.335Z,95420.91
2018-07-10T22:00:46.706Z,95421.73
2018-07-10T22:03:16.286Z,95421.70
2018-07-10T22:05:45.508Z,95419.85
2018-07-10T22:08:14.706Z,95417.97
2018-07-10T22:10:43.932Z,95414.09
2018-07-10T22:13:13.057Z,95410.25
2018-07-10T22:15:42.187Z,95410.70
2018-07-10T22:18:11.443Z,95406.75
2018-07-10T22:23:17.236Z,95406.92
2018-07-10T22:25:46.307Z,95405.36
2018-07-10T22:28:15.466Z,95408.43
2018-07-10T22:33:41.225Z,95388.14
2018-07-10T22:36:10.311Z,95388.44
2018-07-10T22:38:39.390Z,95385.64
2018-07-10T22:41:08.464Z,95386.27
2018-07-10T22:46:13.341Z,95389.66
2018-07-10T22:48:42.409Z,95386.70
2018-07-10T22:51:15.302Z,95385.97
2018-07-10T22:56:33.548Z,95371.55
2018-07-10T22:59:03.036Z,95371.75
2018-07-10T23:01:32.189Z,95375.33
2018-07-10T23:04:08.869Z,95372.61
2018-07-10T23:11:49.482Z,95369.39
2018-07-10T23:14:18.568Z,95365.70
2018-07-10T23:16:52.560Z,95368.39
2018-07-10T23:19:21.628Z,95374.30
2018-07-10T23:21:50.734Z,95368.04
2018-07-10T23:24:20.830Z,95364.92
2018-07-10T23:26:49.902Z,95364.63
2018-07-10T23:29:18.982Z,95365.37
2018-07-10T23:31:48.074Z,95360.34
2018-07-10T23:34:17.154Z,95354.19
2018-07-10T23:36:46.217Z,95359.27
2018-07-10T23:39:15.281Z,95357.68
2018-07-10T23:41:48.159Z,95351.55
2018-07-10T23:44:17.226Z,95355.27
2018-07-10T23:46:46.293Z,95355.24
2018-07-10T23:49:15.355Z,95348.70
2018-07-10T23:51:44.426Z,95340.38
2018-07-10T23:54:13.498Z,95327.74
2018-07-10T23:56:43.574Z,95324.27
2018-07-10T23:59:12.682Z,95328.63
